Austwell, Texas
Current Conditions -  °F | °C
As of 6:55 PM on Monday 26 Jan 2015 (Local Time) from KPKV Reporting Station
Clear Clear  
Wind Chill: 56°   Ceiling: Unl
Heat Index: 56°   Visibility: 10mi
Dew Point: 49°   Wind: 7mph
Humidity: 75%   Direction: 200°SSW
Pressure: 30.2"   Gusts: NA
Location:  28.39°N, 96.84°W
Report Text: KPKV 270055Z AUTO 20006KT 10SM CLR 14/09 A3020 RMK AO2 T01350092
Loading
Personal Weather Stations






























Interactive Weather Map New forecast layout! Learn more

10-Day Weather Forecast

Advertisements
Track Severe Weather on mobile